Terminal Aerodrome Forecast
Issued by NWS

Home | Current Version | Previous Version | Graphics & Text | Print | Product List | Glossary On
Versions: 1 2 3 4 5 6 7 8 9 10 11 12 13 14 15 16 17 18 19
000
FTUS43 KMPX 171722
TAFAXN
TAF
KAXN 171722Z 1718/1818 30012KT P6SM SCT250
     FM172100 30015KT P6SM BKN250
     FM180800 12007KT P6SM OVC100
     FM181100 12015G21KT P6SM OVC050
     FM181400 12014G23KT 1 1/2SM -SN OVC015=

USA.gov is the U.S. government's official web portal to all federal, state and local government web resources and services.